Flight Track Log - Related Links

Times and Time Zones

All times are in EDT time to prevent confusion due to time zone crossing. See the SWA3678 flight status page for this flight to view local times or setup timezone preferences in your user account.

Time Position Orientation Groundspeed Altitude Reporting Facility
EDT Latitude Longitude Course Direction KTS MPH feet Rate Location/Type
Sat 12:31:29 PM 33.4333 -111.9833 90° East 175 201 1,800  Level Phoenix TRACON
Sat 12:32:23 PM 33.4333 -111.9333 90° East 209 241 3,500 2,150 Climbing Phoenix TRACON
Sat 12:33:29 PM 33.4500 -111.8333 79° East 281 323 6,100 2,505 Climbing Phoenix TRACON
Sat 12:34:06 PM 33.4483 -111.7917 93° East 279 321 7,800 2,788 Climbing Albuquerque Center
Sat 12:35:08 PM 33.4614 -111.6969 81° East 289 333 10,700 2,468 Climbing Albuquerque Center
Sat 12:36:10 PM 33.4756 -111.5867 81° East 336 387 12,900 2,661 Climbing Albuquerque Center
Sat 12:37:12 PM 33.4936 -111.4442 81° East 362 417 16,200 2,903 Climbing Albuquerque Center
Sat 12:38:14 PM 33.5086 -111.3214 82° East 374 430 18,900 2,468 Climbing Albuquerque Center
Sat 12:39:16 PM 33.5228 -111.1933 82° East 388 447 21,300 2,129 Climbing Albuquerque Center
Sat 12:40:18 PM 33.5378 -111.0603 82° East 404 465 23,300 1,887 Climbing Albuquerque Center
Sat 12:41:20 PM 33.5528 -110.9208 83° East 420 483 25,200 1,694 Climbing Albuquerque Center
Sat 12:42:22 PM 33.5925 -110.7825 71° East 440 506 26,800 1,659 Climbing Albuquerque Center
Sat 12:43:23 PM 33.6467 -110.6147 69° East 451 519 28,600 1,610 Climbing Albuquerque Center
Sat 12:44:25 PM 33.6933 -110.4681 69° East 465 535 30,100 1,548 Climbing Albuquerque Center
Sat 12:45:27 PM 33.7419 -110.3214 68° East 473 544 31,800 1,694 Climbing Albuquerque Center
Sat 12:46:29 PM 33.7875 -110.1750 69° East 471 542 33,600 1,500 Climbing Albuquerque Center
Sat 12:47:31 PM 33.8436 -110.0011 69° East 471 542 34,900 1,355 Climbing Albuquerque Center
Sat 12:48:33 PM 33.8897 -109.8550 69° East 481 554 36,400 1,016 Climbing Albuquerque Center
Sat 12:49:35 PM 33.9425 -109.6892 69° East 478 550 37,000 290 Climbing Albuquerque Center
Sat 12:50:37 PM 33.9861 -109.5469 70° East 475 547 37,000  Level Albuquerque Center
Sat 12:51:39 PM 34.0308 -109.4036 69° East 476 548 37,000  Level Albuquerque Center
Sat 12:52:41 PM 34.0839 -109.2408 68° East 471 542 37,000  Level Albuquerque Center
Sat 12:53:43 PM 34.1256 -109.0978 71° East 472 543 37,000 145 Level Albuquerque Center
Sat 12:54:45 PM 34.1519 -108.9272 79° East 463 533 37,300 823 Climbing Albuquerque Center
Sat 12:55:47 PM 34.1739 -108.7722 80° East 465 535 38,700 823 Climbing Albuquerque Center
Sat 12:56:49 PM 34.1961 -108.6200 80° East 461 531 39,000 146 Climbing Albuquerque Center
Sat 12:57:50 PM 34.2186 -108.4675 80° East 462 532 39,000  Level Albuquerque Center
Sat 12:58:52 PM 34.2417 -108.3147 80° East 463 533 39,000  Level Albuquerque Center
Sat 12:59:54 PM 34.2683 -108.1406 79° East 462 532 39,000  Level Albuquerque Center
Sat 01:00:56 PM 34.2894 -107.9889 80° East 458 527 39,000  Level Albuquerque Center
Sat 01:01:58 PM 34.3147 -107.8308 79° East 457 526 39,000  Level Albuquerque Center
Sat 01:03:00 PM 34.3381 -107.6797 79° East 457 526 39,000  Level Albuquerque Center
Sat 01:04:01 PM 34.3594 -107.5278 80° East 459 528 39,000  Level Albuquerque Center
Sat 01:05:03 PM 34.3806 -107.3767 80° East 459 528 39,000  Level Albuquerque Center
Sat 01:06:05 PM 34.4017 -107.2253 80° East 459 528 39,000  Level Albuquerque Center
Sat 01:07:07 PM 34.4225 -107.0744 80° East 457 526 39,000  Level Albuquerque Center
Sat 01:08:09 PM 34.4469 -106.8936 81° East 457 526 39,000  Level Albuquerque Center
Sat 01:09:11 PM 34.4664 -106.7411 81° East 460 529 39,000  Level Albuquerque Center
Sat 01:10:12 PM 34.4878 -106.5914 80° East 457 526 39,000  Level Albuquerque Center
Sat 01:11:14 PM 34.5078 -106.4408 81° East 456 525 39,000  Level Albuquerque Center
Sat 01:12:16 PM 34.5286 -106.2886 81° East 458 527 39,000  Level Albuquerque Center
Sat 01:13:18 PM 34.5503 -106.1097 82° East 449 517 39,000  Level Albuquerque Center
Sat 01:14:19 PM 34.5706 -105.9567 81° East 453 521 39,000  Level Albuquerque Center
Sat 01:15:21 PM 34.5897 -105.8042 81° East 454 522 39,000  Level Albuquerque Center
Sat 01:16:23 PM 34.6106 -105.6503 81° East 458 527 39,000  Level Albuquerque Center
Sat 01:17:25 PM 34.6294 -105.4947 82° East 461 531 39,000  Level Albuquerque Center
Sat 01:18:26 PM 34.6494 -105.3386 81° East 463 533 39,000  Level Albuquerque Center
Sat 01:19:28 PM 34.6678 -105.1822 82° East 464 534 39,000  Level Albuquerque Center
Sat 01:20:30 PM 34.6867 -105.0294 81° East 458 527 39,000  Level Albuquerque Center
Sat 01:21:32 PM 34.7089 -104.8522 81° East 454 522 39,000  Level Albuquerque Center
Sat 01:22:33 PM 34.7275 -104.6992 82° East 454 522 39,000  Level Albuquerque Center
Sat 01:23:35 PM 34.7447 -104.5472 82° East 453 521 39,000  Level Albuquerque Center
Sat 01:24:37 PM 34.7636 -104.3964 81° East 451 519 39,000  Level Albuquerque Center
Sat 01:25:38 PM 34.7811 -104.2444 82° East 452 520 39,000  Level Albuquerque Center
Sat 01:26:40 PM 34.7983 -104.0931 82° East 452 520 39,000  Level Albuquerque Center
Sat 01:27:42 PM 34.8156 -103.9444 82° East 447 514 39,000  Level Albuquerque Center
Sat 01:28:44 PM 34.8350 -103.7736 82° East 440 506 39,000  Level Albuquerque Center
Sat 01:29:45 PM 34.8517 -103.6264 82° East 438 504 39,000  Level Albuquerque Center
Sat 01:30:47 PM 34.8672 -103.4778 83° East 439 505 39,000  Level Albuquerque Center
Sat 01:31:49 PM 34.8842 -103.3294 82° East 440 506 39,000  Level Albuquerque Center
Sat 01:32:51 PM 34.9006 -103.1811 82° East 440 506 39,000  Level Albuquerque Center
Sat 01:33:53 PM 34.9150 -103.0333 83° East 437 503 39,000  Level Albuquerque Center
Sat 01:34:54 PM 34.9303 -102.8861 83° East 436 502 39,000  Level Albuquerque Center
Sat 01:35:56 PM 34.9458 -102.7383 83° East 436 502 39,000  Level Albuquerque Center
Sat 01:36:58 PM 34.9597 -102.5933 83° East 435 501 39,000  Level Albuquerque Center
Sat 01:38:00 PM 34.9775 -102.4178 83° East 436 502 39,000  Level Albuquerque Center
Sat 01:39:02 PM 34.9911 -102.2711 83° East 437 503 39,000  Level Albuquerque Center
Sat 01:40:03 PM 35.0061 -102.1244 83° East 438 504 39,000  Level Albuquerque Center
Sat 01:41:05 PM 35.0206 -101.9717 83° East 440 506 39,000  Level Albuquerque Center
Sat 01:42:07 PM 35.0375 -101.8208 82° East 444 511 39,000  Level Albuquerque Center
Sat 01:43:09 PM 35.0525 -101.6583 84° East 441 507 39,000  Level Albuquerque Center
Sat 01:44:10 PM 35.0644 -101.5100 84° East 439 505 39,000  Level Albuquerque Center
Sat 01:45:12 PM 35.0792 -101.3619 83° East 440 506 39,000  Level Albuquerque Center
Sat 01:46:14 PM 35.0903 -101.2144 85° East 443 510 39,000  Level Albuquerque Center
Sat 01:47:15 PM 35.1036 -101.0681 84° East 439 505 39,000  Level Albuquerque Center
Sat 01:48:17 PM 35.1175 -100.9222 83° East 436 502 39,000  Level Albuquerque Center
Sat 01:49:19 PM 35.1328 -100.7464 84° East 435 501 39,000  Level Albuquerque Center
Sat 01:50:20 PM 35.1444 -100.6003 84° East 435 501 39,000  Level Albuquerque Center
Sat 01:51:22 PM 35.1567 -100.4553 84° East 432 497 39,000  Level Albuquerque Center
Sat 01:52:24 PM 35.1694 -100.3036 84° East 431 496 39,000  Level Albuquerque Center
Sat 01:53:25 PM 35.1817 -100.1589 84° East 430 495 39,000  Level Albuquerque Center
Sat 01:54:27 PM 35.1933 -100.0136 84° East 430 495 39,000  Level Albuquerque Center
Sat 01:55:29 PM 35.2042 -99.8669 85° East 432 497 39,000  Level Albuquerque Center
Sat 01:56:30 PM 35.2150 -99.7203 85° East 434 499 39,000  Level Albuquerque Center
Sat 01:57:32 PM 35.2267 -99.5725 84° East 437 503 39,000  Level Albuquerque Center
Sat 01:58:34 PM 35.2392 -99.3944 85° East 438 504 39,000  Level Albuquerque Center
Sat 01:59:47 PM 35.2514 -99.2133 85° East 435 501 39,000  Level Fort Worth Center
Sat 02:00:47 PM 35.2617 -99.0661 85° East 435 501 39,000  Level Fort Worth Center
Sat 02:01:47 PM 35.2742 -98.9164 84° East 440 506 39,000  Level Fort Worth Center
Sat 02:02:47 PM 35.2819 -98.7689 86° East 440 506 39,000  Level Fort Worth Center
Sat 02:03:47 PM 35.2939 -98.6192 84° East 440 506 39,000  Level Fort Worth Center
Sat 02:04:47 PM 35.3058 -98.4794 84° East 433 498 39,000  Level Fort Worth Center
Sat 02:05:47 PM 35.3131 -98.3294 87° East 426 490 39,000  Level Fort Worth Center
Sat 02:06:47 PM 35.3225 -98.1844 85° East 426 490 39,000  Level Fort Worth Center
Sat 02:07:47 PM 35.3317 -98.0344 86° East 426 490 39,000  Level Fort Worth Center
Sat 02:08:47 PM 35.3406 -97.8844 86° East 426 490 39,000  Level Fort Worth Center
Sat 02:09:47 PM 35.3494 -97.7367 86° East 432 497 39,000  Level Fort Worth Center
Sat 02:10:47 PM 35.3539 -97.5892 88° East 432 497 39,000  Level Fort Worth Center
Sat 02:11:47 PM 35.3417 -97.4314 95° East 444 511 39,000  Level Fort Worth Center
Sat 02:12:47 PM 35.3269 -97.2811 97° East 451 519 39,000  Level Fort Worth Center
Sat 02:13:47 PM 35.3078 -97.1261 99° East 459 528 39,000  Level Fort Worth Center
Sat 02:14:47 PM 35.2950 -96.9889 96° East 459 528 39,000  Level Fort Worth Center
Sat 02:15:47 PM 35.2797 -96.8364 97° East 454 522 39,000  Level Fort Worth Center
Sat 02:16:47 PM 35.2664 -96.6864 96° East 448 516 39,000  Level Fort Worth Center
Sat 02:17:47 PM 35.2489 -96.5339 98° East 448 516 39,000  Level Fort Worth Center
Sat 02:18:47 PM 35.2353 -96.3867 96° East 448 516 39,000  Level Fort Worth Center
Sat 02:19:47 PM 35.2192 -96.2369 97° East 448 516 39,000  Level Fort Worth Center
Sat 02:20:47 PM 35.2033 -96.0872 97° East 448 516 39,000  Level Fort Worth Center
Sat 02:21:47 PM 35.1847 -95.9378 99° East 448 516 39,000  Level Fort Worth Center
Sat 02:22:47 PM 35.1725 -95.7881 96° East 443 510 39,000  Level Fort Worth Center
Sat 02:23:47 PM 35.1558 -95.6386 98° East 443 510 39,000  Level Fort Worth Center
Sat 02:25:26 PM 35.1289 -95.3942 98° East 427 491 39,000 -302 Level Memphis Center
Sat 02:26:26 PM 35.1119 -95.2433 98° East 427 491 38,200 -900 Descending Memphis Center
Sat 02:27:26 PM 35.0928 -95.0875 99° East 437 503 37,200 -950 Descending Memphis Center
Sat 02:28:26 PM 35.0758 -94.9317 98° East 452 520 36,300 -950 Descending Memphis Center
Sat 02:29:26 PM 35.0564 -94.7761 99° East 457 526 35,300 -1,050 Descending Memphis Center
Sat 02:30:26 PM 35.0353 -94.6050 99° East 464 534 34,200 -1,600 Descending Memphis Center
Sat 02:31:26 PM 35.0194 -94.4494 97° East 464 534 32,100 -2,050 Descending Memphis Center
Sat 02:32:26 PM 34.9994 -94.2989 99° East 464 534 30,100 -2,050 Descending Memphis Center
Sat 02:33:26 PM 34.9831 -94.1511 98° East 451 519 28,000 -2,050 Descending Memphis Center
Sat 02:34:26 PM 34.9664 -94.0161 99° East 429 494 26,000 -1,950 Descending Memphis Center
Sat 02:35:26 PM 34.9472 -93.8786 100° East 416 479 24,100 -1,900 Descending Memphis Center
Sat 02:36:26 PM 34.9303 -93.7436 99° East 410 472 22,200 -1,850 Descending Memphis Center
Sat 02:37:26 PM 34.9147 -93.6164 98° East 398 458 20,400 -1,785 Descending Memphis Center
Sat 02:38:27 PM 34.8989 -93.5019 100° East 386 444 18,600 -1,750 Descending Memphis Center
Sat 02:39:26 PM 34.8833 -93.3772 99° East 379 436 16,900 -1,815 Descending Memphis Center
Sat 02:40:26 PM 34.8694 -93.2603 98° East 366 421 15,000 -1,850 Descending Memphis Center
Sat 02:41:26 PM 34.8531 -93.1458 100° East 353 406 13,200 -1,868 Descending Memphis Center
Sat 02:42:12 PM 34.8386 -93.0492 100° East 329 379 11,700 -1,682 Descending Memphis Center
Sat 02:43:13 PM 34.8261 -92.9450 98° East 319 367 10,200 -1,240 Descending Memphis Center
Sat 02:44:13 PM 34.8033 -92.8458 106° East 288 331 9,200 -1,240 Descending Memphis Center
Sat 02:45:14 PM 34.7800 -92.7567 108° East 276 318 7,700 -1,082 Descending Memphis Center
Sat 02:46:15 PM 34.7567 -92.6675 108° East 272 313 7,000 -397 Descending Memphis Center
Sat 02:47:15 PM 34.7350 -92.5936 110° East 227 261 6,900 -1,190 Descending Memphis Center
Sat 02:48:16 PM 34.7156 -92.5122 106° East 252 290 4,600 -1,623 Descending Memphis Center
Sat 02:49:17 PM 34.6897 -92.4258 110° East 255 293 3,600 -1,190 Descending Memphis Center
Sat 02:50:17 PM 34.6661 -92.3469 110° East 258 297 2,200 -942 Descending Memphis Center
Sat 02:51:18 PM 34.6858 -92.2867 68° East 182 209 1,700 -793 Descending Memphis Center
Sat 02:52:18 PM 34.7114 -92.2544 46° Northeast 120 138 600 3,891 Descending Memphis Center
Sat 02:53:26 PM 34.7272 -92.1714 77° East 185 213 10,000 4,406 Climbing Memphis Center
Sat 02:54:26 PM 34.7447 -92.1161 69° East 185 213 10,000  Level Memphis Center
Sat 02:55:26 PM 34.7600 -92.0583 72° East 185 213 10,000  Level Memphis Center
Sat 02:56:26 PM 34.7667 -92.0358 70° East 185 213 10,000  Level Memphis Center
Sat 02:58:00 PM 34.7167 -92.2167 260° West  Level FlightAware Approximate
Sat 03:05:00 PM 34.7294 -92.2248 260° West  Level Estimated

Login

Don't have an account? Register now (free) for customized features, flight alerts, and more!